Time;durP1;ratioP1;P1;durP2;ratioP2;P2;SDS_P1;SDS_P2;PMS_P1;PMS_P2;Temp;Humidity;BMP_temperature;BMP_pressure;BME280_temperature;BME280_humidity;BME280_pressure;Samples;Min_cycle;Max_cycle;Signal;HPM_P1;HPM_P2
2022/01/20 00:03:32;;;;;;;7.35;1.05;;;4.40;96.00;;;;;;5034180;28;20464;-80
2022/01/20 00:27:56;;;;;;;7.32;1.00;;;4.50;96.00;;;;;;5037012;28;20044;-79
2022/01/20 00:30:48;;;;;;;12.68;1.58;;;4.50;95.90;;;;;;5020665;28;20132;-79
2022/01/20 00:33:33;;;;;;;8.23;0.80;;;4.50;95.90;;;;;;5020794;28;20098;-79
2022/01/20 00:38:38;;;;;;;7.15;0.60;;;4.60;95.90;;;;;;5036728;28;20053;-79
2022/01/20 00:41:08;;;;;;;8.07;1.15;;;4.70;95.90;;;;;;5037089;28;20037;-79
2022/01/20 00:43:35;;;;;;;4.63;1.17;;;4.80;96.10;;;;;;5036778;28;20045;-79
2022/01/20 00:46:03;;;;;;;9.02;1.00;;;4.90;95.80;;;;;;5020452;28;20040;-79
2022/01/20 00:48:31;;;;;;;4.70;0.52;;;4.90;95.70;;;;;;5036964;28;20473;-79
2022/01/20 00:50:59;;;;;;;6.50;0.73;;;4.90;95.70;;;;;;5036663;28;20057;-80
2022/01/20 00:53:26;;;;;;;4.60;0.40;;;4.80;95.60;;;;;;5020287;28;20136;-79
2022/01/20 00:55:53;;;;;;;5.25;0.65;;;4.80;95.70;;;;;;5020215;28;20140;-79
2022/01/20 00:58:20;;;;;;;4.72;1.00;;;4.80;95.70;;;;;;5020075;28;20049;-79
2022/01/20 01:00:47;;;;;;;4.00;0.70;;;4.80;95.70;;;;;;5035673;28;20069;-79
2022/01/20 01:03:14;;;;;;;3.95;0.70;;;4.80;95.70;;;;;;5020080;28;20132;-79
2022/01/20 01:05:58;;;;;;;4.35;0.60;;;4.80;95.60;;;;;;5020143;28;20072;-79
2022/01/20 01:08:26;;;;;;;5.47;0.85;;;4.80;95.60;;;;;;5020012;28;20049;-79
2022/01/20 01:10:53;;;;;;;3.20;0.40;;;4.70;95.70;;;;;;5020005;28;20045;-79
2022/01/20 01:13:22;;;;;;;3.33;0.70;;;4.70;95.70;;;;;;5019881;28;20049;-79
2022/01/20 01:15:50;;;;;;;4.28;0.70;;;4.80;95.70;;;;;;5036275;28;20516;-79
2022/01/20 01:23:39;;;;;;;2.97;0.40;;;4.60;95.70;;;;;;5032711;28;20049;-81
2022/01/20 01:26:09;;;;;;;4.13;0.68;;;4.70;95.70;;;;;;5032780;28;20046;-80
2022/01/20 01:28:36;;;;;;;6.03;0.93;;;4.70;95.70;;;;;;5033173;28;20557;-79
2022/01/20 01:33:38;;;;;;;6.65;0.40;;;4.70;95.60;;;;;;5032749;28;20053;-79
2022/01/20 01:36:07;;;;;;;2.72;0.52;;;4.70;95.60;;;;;;5016365;28;20521;-79
2022/01/20 01:38:38;;;;;;;6.07;1.00;;;4.70;95.70;;;;;;5016426;28;20096;-79
2022/01/20 01:41:13;;;;;;;4.05;0.75;;;4.70;95.70;;;;;;5032610;28;20048;-80
2022/01/20 01:43:45;;;;;;;6.18;0.68;;;4.70;95.70;;;;;;5016212;28;20045;-78
2022/01/20 01:46:15;;;;;;;4.40;1.52;;;4.70;95.60;;;;;;5032366;28;20413;-79
2022/01/20 01:48:44;;;;;;;3.45;0.65;;;4.70;95.60;;;;;;5032410;28;20088;-79
2022/01/20 01:51:11;;;;;;;4.35;0.73;;;4.70;95.60;;;;;;5015967;28;20045;-79
2022/01/20 01:53:43;;;;;;;4.70;0.68;;;4.70;95.60;;;;;;5016174;28;20068;-79
2022/01/20 01:56:11;;;;;;;2.42;0.47;;;4.80;95.60;;;;;;5032205;28;20069;-79
2022/01/20 01:58:38;;;;;;;2.75;0.47;;;4.80;95.60;;;;;;5015563;28;20505;-79
2022/01/20 02:01:17;;;;;;;3.30;0.60;;;4.80;95.50;;;;;;5031935;28;20044;-79
2022/01/20 02:03:57;;;;;;;2.28;0.43;;;4.80;95.60;;;;;;5032118;28;20045;-79
2022/01/20 02:19:55;;;;;;;5.18;0.80;;;5.10;95.40;;;;;;5018037;28;20099;-81
2022/01/20 02:22:41;;;;;;;2.65;0.45;;;5.00;95.30;;;;;;5019783;28;20577;-80
2022/01/20 02:25:28;;;;;;;4.82;0.60;;;5.00;95.20;;;;;;5004767;28;20041;-81
2022/01/20 02:27:57;;;;;;;3.30;0.38;;;4.90;95.20;;;;;;5019643;28;20052;-81
2022/01/20 02:30:26;;;;;;;4.05;0.47;;;4.80;95.30;;;;;;5018595;28;20566;-80
2022/01/20 02:33:01;;;;;;;2.38;0.40;;;4.70;95.40;;;;;;5035017;28;20052;-81
2022/01/20 02:35:33;;;;;;;4.40;0.45;;;4.70;95.40;;;;;;5018655;28;20084;-80
2022/01/20 02:38:50;;;;;;;1.33;0.28;;;4.70;95.50;;;;;;5035004;28;20563;-80
2022/01/20 02:46:25;;;;;;;6.80;0.88;;;4.70;95.60;;;;;;5021200;28;20043;-80
2022/01/20 02:48:52;;;;;;;6.15;0.50;;;4.70;95.50;;;;;;5018492;28;20037;-80
2022/01/20 02:51:20;;;;;;;5.03;0.90;;;4.70;95.40;;;;;;5018478;28;20045;-80
2022/01/20 02:53:48;;;;;;;10.43;0.73;;;4.80;95.60;;;;;;5017973;28;20049;-80
2022/01/20 02:56:15;;;;;;;6.32;0.50;;;4.80;95.20;;;;;;5017621;28;20052;-80
2022/01/20 02:58:42;;;;;;;3.45;0.50;;;4.80;95.20;;;;;;5017629;28;20049;-80
2022/01/20 03:01:09;;;;;;;6.28;1.02;;;4.70;95.20;;;;;;5001354;28;20535;-80
2022/01/20 03:03:37;;;;;;;7.10;0.40;;;4.70;95.30;;;;;;5001504;28;20531;-79
2022/01/20 03:06:04;;;;;;;3.65;0.32;;;4.70;95.30;;;;;;5033876;28;20043;-80
2022/01/20 03:08:33;;;;;;;4.57;0.63;;;4.70;95.40;;;;;;5018011;28;20041;-80
2022/01/20 03:11:00;;;;;;;6.50;0.57;;;4.70;95.40;;;;;;5018510;28;20076;-80
2022/01/20 03:13:27;;;;;;;6.03;0.50;;;4.80;95.40;;;;;;5017369;28;20045;-80
2022/01/20 03:15:55;;;;;;;4.68;0.73;;;4.90;95.40;;;;;;5001143;28;20044;-80
2022/01/20 03:18:22;;;;;;;8.32;0.98;;;4.90;95.30;;;;;;5017272;28;20151;-80
2022/01/20 03:20:49;;;;;;;5.28;0.77;;;4.90;95.20;;;;;;5017125;28;20199;-80
2022/01/20 03:23:16;;;;;;;6.60;1.08;;;4.90;95.10;;;;;;5033363;28;20467;-80
2022/01/20 03:25:43;;;;;;;6.95;0.52;;;4.90;95.10;;;;;;5020403;28;20052;-81
2022/01/20 03:28:10;;;;;;;6.68;0.40;;;4.90;95.10;;;;;;5021422;28;20091;-81
2022/01/20 03:30:37;;;;;;;4.63;1.40;;;4.90;95.10;;;;;;5022155;28;20048;-81
2022/01/20 03:33:04;;;;;;;4.47;0.85;;;4.90;95.10;;;;;;5022051;28;20049;-81
2022/01/20 03:35:35;;;;;;;3.58;0.40;;;4.90;95.10;;;;;;5022378;28;20501;-81
2022/01/20 03:38:22;;;;;;;4.78;0.50;;;5.00;95.20;;;;;;5027930;28;20500;-81
2022/01/20 03:40:53;;;;;;;7.25;1.05;;;5.00;95.10;;;;;;5022436;28;20041;-81
2022/01/20 03:43:21;;;;;;;4.88;0.40;;;5.00;95.10;;;;;;5021829;28;20128;-81
2022/01/20 03:45:56;;;;;;;3.08;0.52;;;5.00;95.10;;;;;;5021744;28;20071;-81
2022/01/20 03:48:27;;;;;;;3.05;0.32;;;4.90;95.10;;;;;;5022543;28;20562;-81
2022/01/20 03:51:02;;;;;;;1.67;0.20;;;4.90;95.10;;;;;;5021540;28;20072;-81
2022/01/20 03:53:36;;;;;;;3.97;0.60;;;4.90;95.20;;;;;;5021926;28;20164;-81
2022/01/20 03:56:05;;;;;;;4.90;0.90;;;4.90;95.20;;;;;;5021277;28;20060;-80
2022/01/20 03:58:47;;;;;;;5.72;0.70;;;4.90;95.20;;;;;;5008812;28;20408;-81
2022/01/20 04:01:16;;;;;;;5.25;0.32;;;4.90;95.20;;;;;;5037277;28;20037;-81
2022/01/20 04:04:02;;;;;;;3.60;0.40;;;4.90;95.20;;;;;;5026452;28;20511;-81
2022/01/20 04:06:40;;;;;;;4.05;0.30;;;4.90;95.20;;;;;;5022568;28;20503;-81
2022/01/20 04:09:07;;;;;;;3.35;0.63;;;4.90;95.20;;;;;;5021250;28;20049;-82
2022/01/20 04:11:34;;;;;;;3.95;0.38;;;5.00;95.20;;;;;;5037805;28;20575;-82
2022/01/20 04:14:03;;;;;;;2.95;0.47;;;5.00;95.20;;;;;;5005087;28;20500;-81
2022/01/20 04:16:36;;;;;;;7.90;0.43;;;5.00;95.20;;;;;;5021586;28;20047;-81
2022/01/20 04:19:07;;;;;;;1.92;0.38;;;5.00;95.10;;;;;;5021045;28;20045;-81
2022/01/20 04:21:36;;;;;;;5.03;0.40;;;5.10;95.10;;;;;;5020670;28;20045;-81
2022/01/20 04:24:06;;;;;;;3.53;0.30;;;5.10;95.10;;;;;;5020670;28;20083;-81
2022/01/20 04:26:37;;;;;;;2.72;0.55;;;5.10;95.10;;;;;;5020974;28;20052;-81
2022/01/20 04:29:07;;;;;;;1.75;0.30;;;5.10;95.00;;;;;;5037234;28;20041;-81
2022/01/20 04:31:36;;;;;;;2.80;0.40;;;5.10;95.00;;;;;;5004724;28;20524;-81
2022/01/20 04:34:06;;;;;;;3.70;0.57;;;5.10;94.90;;;;;;5021072;28;20598;-81
2022/01/20 04:36:37;;;;;;;4.22;0.93;;;5.10;94.90;;;;;;5019691;28;20045;-81
2022/01/20 04:39:08;;;;;;;0.93;0.20;;;5.10;95.00;;;;;;5021135;28;20036;-81
2022/01/20 04:41:35;;;;;;;2.63;0.30;;;5.10;95.00;;;;;;5037317;28;20044;-82
2022/01/20 04:44:10;;;;;;;3.10;0.50;;;5.10;94.90;;;;;;5004778;28;20048;-81
2022/01/20 04:47:21;;;;;;;6.80;0.52;;;5.20;94.90;;;;;;5036973;28;20114;-81
2022/01/20 04:57:50;;;;;;;4.47;0.30;;;5.10;94.60;;;;;;5036814;28;20045;-81
2022/01/20 05:00:17;;;;;;;2.83;0.43;;;5.10;94.70;;;;;;5004327;28;20080;-81
2022/01/20 05:03:05;;;;;;;1.25;0.20;;;5.10;94.70;;;;;;5025699;28;20044;-81
2022/01/20 05:05:33;;;;;;;2.80;0.68;;;5.10;94.80;;;;;;5020416;28;20079;-82
2022/01/20 05:08:09;;;;;;;2.95;0.30;;;5.10;94.80;;;;;;5021382;28;20049;-82
2022/01/20 05:10:39;;;;;;;3.95;0.20;;;5.10;94.80;;;;;;5020506;28;20528;-81
2022/01/20 05:13:11;;;;;;;2.00;0.20;;;5.00;94.80;;;;;;5032580;28;20036;-80
2022/01/20 05:15:40;;;;;;;2.30;0.28;;;5.10;94.80;;;;;;5018492;28;20045;-81
2022/01/20 05:18:07;;;;;;;2.00;0.35;;;5.00;94.80;;;;;;5036358;28;20045;-82
2022/01/20 05:20:34;;;;;;;4.68;0.55;;;5.00;94.80;;;;;;5052801;28;20049;-81
2022/01/20 05:23:02;;;;;;;1.92;0.60;;;5.10;94.80;;;;;;5036186;28;20049;-81
2022/01/20 05:25:29;;;;;;;2.30;0.32;;;5.10;94.80;;;;;;5036343;28;20037;-81
2022/01/20 05:27:56;;;;;;;3.42;0.43;;;5.00;94.70;;;;;;5020275;28;20051;-80
2022/01/20 05:30:24;;;;;;;1.42;0.20;;;5.10;94.80;;;;;;5052348;28;20057;-79
2022/01/20 05:33:19;;;;;;;1.48;0.13;;;5.10;94.80;;;;;;5048731;28;20497;-79
2022/01/20 05:35:46;;;;;;;1.02;0.17;;;5.10;94.80;;;;;;5019655;28;20048;-79
2022/01/20 05:38:13;;;;;;;3.42;0.22;;;5.10;94.80;;;;;;5035289;28;20049;-79
2022/01/20 05:40:45;;;;;;;5.20;0.40;;;5.10;94.70;;;;;;5004591;28;20128;-80
2022/01/20 05:43:13;;;;;;;2.90;0.30;;;5.00;94.60;;;;;;5035804;28;20155;-80
2022/01/20 05:45:41;;;;;;;5.15;0.57;;;5.00;94.60;;;;;;5035605;28;20068;-79
2022/01/20 05:48:27;;;;;;;8.80;0.85;;;5.00;94.50;;;;;;5035421;28;20073;-80
2022/01/20 05:50:57;;;;;;;3.83;0.43;;;5.00;94.40;;;;;;5022127;28;20056;-79
2022/01/20 05:53:25;;;;;;;5.05;0.30;;;5.00;94.40;;;;;;5034963;28;20403;-80
2022/01/20 05:55:52;;;;;;;3.13;0.30;;;5.00;94.40;;;;;;5018426;28;20076;-80
2022/01/20 05:58:19;;;;;;;2.55;0.30;;;5.00;94.40;;;;;;5018434;28;20045;-79
2022/01/20 06:00:48;;;;;;;6.30;0.55;;;5.00;94.40;;;;;;5034408;28;20049;-79
2022/01/20 06:06:08;;;;;;;4.45;0.60;;;5.00;94.20;;;;;;5038148;28;20045;-80
2022/01/20 06:08:36;;;;;;;5.45;1.08;;;5.00;94.10;;;;;;5035241;28;20045;-81
2022/01/20 06:11:04;;;;;;;8.18;0.57;;;5.00;94.10;;;;;;5035415;28;20064;-81
2022/01/20 06:13:32;;;;;;;3.35;0.45;;;5.00;94.10;;;;;;5035479;28;20048;-81
2022/01/20 06:16:01;;;;;;;4.07;1.10;;;5.00;94.00;;;;;;5035430;28;20560;-82
2022/01/20 06:18:31;;;;;;;5.28;0.65;;;5.00;94.10;;;;;;5035180;28;20523;-82
2022/01/20 06:20:58;;;;;;;3.70;0.98;;;5.00;94.00;;;;;;5035230;28;20060;-82
2022/01/20 06:23:27;;;;;;;3.83;0.50;;;5.00;93.80;;;;;;5019047;28;20148;-82
2022/01/20 06:25:56;;;;;;;5.53;0.65;;;4.90;93.80;;;;;;5035337;28;20458;-81
2022/01/20 06:28:23;;;;;;;4.30;0.55;;;4.90;93.90;;;;;;5035575;28;20045;-80
2022/01/20 06:30:50;;;;;;;3.00;0.52;;;4.90;93.90;;;;;;5035096;28;20051;-81
2022/01/20 06:33:18;;;;;;;3.03;0.40;;;4.90;93.90;;;;;;5018305;28;20041;-81
2022/01/20 06:35:51;;;;;;;2.80;0.43;;;4.90;93.90;;;;;;5019053;28;20053;-81
2022/01/20 06:38:19;;;;;;;8.48;0.90;;;4.90;93.90;;;;;;5034366;28;20045;-81
2022/01/20 06:40:47;;;;;;;3.33;0.40;;;4.80;93.70;;;;;;5034471;28;20127;-83
2022/01/20 06:43:14;;;;;;;5.75;0.60;;;4.80;93.70;;;;;;5018180;28;20041;-81
2022/01/20 06:45:41;;;;;;;4.97;0.80;;;4.80;93.50;;;;;;5035143;28;20106;-80
2022/01/20 06:48:13;;;;;;;8.75;1.63;;;4.80;93.50;;;;;;5036065;28;20029;-81
2022/01/20 06:50:59;;;;;;;13.48;3.33;;;4.80;93.50;;;;;;5034839;28;20045;-81
2022/01/20 06:53:26;;;;;;;8.25;1.80;;;4.70;93.40;;;;;;5034975;28;20071;-80
2022/01/20 06:55:53;;;;;;;6.20;1.35;;;4.70;93.50;;;;;;5018621;28;20408;-81
2022/01/20 06:58:22;;;;;;;14.27;2.20;;;4.70;93.40;;;;;;5018637;28;20041;-81
2022/01/20 07:00:50;;;;;;;7.88;1.00;;;4.70;92.70;;;;;;5022831;28;20424;-80
2022/01/20 07:03:24;;;;;;;9.10;1.38;;;4.70;92.70;;;;;;5024494;28;20041;-84
2022/01/20 07:05:52;;;;;;;5.25;0.85;;;4.60;92.60;;;;;;5022856;28;20033;-84
2022/01/20 07:08:21;;;;;;;7.10;0.90;;;4.40;92.50;;;;;;5039290;28;20041;-83
2022/01/20 07:10:49;;;;;;;5.03;0.60;;;4.20;92.90;;;;;;5038901;28;20049;-82
2022/01/20 07:13:16;;;;;;;1.77;0.30;;;4.00;93.10;;;;;;5039107;28;20083;-79
2022/01/20 07:15:43;;;;;;;2.10;0.40;;;3.90;93.40;;;;;;5038595;28;20041;-79
2022/01/20 07:18:10;;;;;;;3.03;0.40;;;3.80;93.40;;;;;;5039001;28;20045;-83
2022/01/20 07:20:37;;;;;;;0.75;0.20;;;3.80;93.50;;;;;;5022765;28;20047;-84
2022/01/20 07:23:10;;;;;;;1.58;0.30;;;3.70;93.50;;;;;;5056963;28;20068;-83
2022/01/20 07:25:49;;;;;;;1.40;0.30;;;3.70;93.60;;;;;;5024483;28;20128;-84
2022/01/20 07:28:18;;;;;;;3.72;0.50;;;3.70;93.60;;;;;;5039060;28;20045;-83
2022/01/20 07:30:48;;;;;;;3.55;0.60;;;3.60;93.60;;;;;;5023292;28;20067;-83
2022/01/20 07:33:19;;;;;;;3.55;0.40;;;3.60;93.70;;;;;;5056200;28;20037;-81
2022/01/20 07:35:56;;;;;;;1.90;0.30;;;3.50;93.70;;;;;;5023634;28;20049;-81
2022/01/20 07:38:23;;;;;;;4.25;1.10;;;3.50;93.70;;;;;;5038129;28;20079;-78
2022/01/20 07:40:51;;;;;;;1.98;0.50;;;3.50;93.70;;;;;;5038491;28;20045;-77
2022/01/20 07:43:19;;;;;;;2.53;0.50;;;3.50;93.70;;;;;;5038192;28;20068;-78
2022/01/20 07:45:53;;;;;;;2.33;0.85;;;3.40;93.70;;;;;;5026474;28;20504;-78
2022/01/20 07:48:23;;;;;;;1.75;0.38;;;3.40;93.80;;;;;;5026654;28;20445;-77
2022/01/20 07:51:08;;;;;;;1.70;0.43;;;3.40;93.80;;;;;;5043598;28;20044;-79
2022/01/20 07:53:37;;;;;;;1.30;0.32;;;3.50;93.80;;;;;;5041521;28;20052;-78
2022/01/20 07:56:07;;;;;;;1.25;0.20;;;3.50;94.00;;;;;;5041396;28;20051;-78
2022/01/20 07:58:34;;;;;;;2.30;0.75;;;3.60;94.00;;;;;;5040992;28;20045;-79
2022/01/20 08:01:04;;;;;;;1.05;0.10;;;3.50;93.70;;;;;;5024973;28;20048;-79
2022/01/20 08:03:37;;;;;;;3.03;0.30;;;3.60;93.80;;;;;;5041826;28;20040;-78
2022/01/20 08:06:08;;;;;;;0.60;0.10;;;3.60;93.80;;;;;;5025860;28;20102;-79
2022/01/20 08:08:38;;;;;;;0.75;0.10;;;3.70;93.80;;;;;;5025527;28;20040;-79
2022/01/20 08:11:24;;;;;;;0.70;0.10;;;3.70;93.70;;;;;;5032648;28;20106;-79
2022/01/20 08:14:00;;;;;;;3.00;0.20;;;3.80;93.70;;;;;;5011975;28;20060;-80
2022/01/20 08:16:28;;;;;;;1.88;0.15;;;3.90;93.60;;;;;;5041656;28;20045;-82
2022/01/20 08:18:55;;;;;;;0.82;0.10;;;3.90;93.70;;;;;;5040896;28;20094;-81
2022/01/20 08:21:22;;;;;;;1.08;0.10;;;3.90;93.60;;;;;;5040923;28;20098;-80
2022/01/20 08:23:51;;;;;;;1.52;0.20;;;4.00;93.60;;;;;;5024727;28;20048;-83
2022/01/20 08:26:21;;;;;;;2.42;0.20;;;4.10;93.60;;;;;;5057295;28;20051;-80
2022/01/20 08:28:49;;;;;;;0.88;0.20;;;4.10;93.50;;;;;;5024259;28;20052;-79
2022/01/20 08:31:17;;;;;;;1.77;0.10;;;4.10;93.40;;;;;;5019795;28;20059;-80
2022/01/20 08:33:44;;;;;;;1.30;0.10;;;4.10;93.40;;;;;;5019789;28;20164;-79
2022/01/20 08:36:18;;;;;;;0.65;0.10;;;4.10;93.40;;;;;;5021146;28;20055;-79
2022/01/20 08:38:49;;;;;;;0.22;0.10;;;4.10;93.50;;;;;;5036720;28;20041;-81
2022/01/20 08:41:17;;;;;;;0.60;0.00;;;4.10;93.50;;;;;;5004652;28;20041;-78
2022/01/20 08:43:46;;;;;;;0.55;0.10;;;4.10;93.40;;;;;;5036491;28;20091;-78
2022/01/20 08:46:19;;;;;;;1.08;0.20;;;4.20;93.40;;;;;;5053349;28;20045;-81
2022/01/20 08:48:47;;;;;;;1.63;0.20;;;4.20;93.40;;;;;;5020506;28;20049;-79
2022/01/20 08:51:18;;;;;;;0.93;0.10;;;4.20;93.30;;;;;;5036727;28;20041;-80
2022/01/20 08:54:12;;;;;;;;;;;4.20;93.40;;;;;;5051806;28;20127;-80
2022/01/20 08:56:41;;;;;;;0.77;0.10;;;4.10;93.50;;;;;;5020450;28;19920;-80
2022/01/20 08:59:09;;;;;;;2.33;0.10;;;4.10;93.50;;;;;;5036416;28;20053;-80
2022/01/20 09:01:39;;;;;;;2.67;0.10;;;4.20;93.50;;;;;;5020445;28;20045;-80
2022/01/20 09:04:07;;;;;;;0.47;0.10;;;4.40;93.40;;;;;;5036568;28;20128;-80
2022/01/20 09:06:40;;;;;;;1.65;0.20;;;4.40;93.30;;;;;;5036407;28;20055;-80
2022/01/20 09:09:17;;;;;;;0.40;0.05;;;4.50;93.30;;;;;;5005881;28;20493;-80
2022/01/20 09:12:03;;;;;;;4.70;0.38;;;4.50;93.20;;;;;;5020339;28;20525;-80
2022/01/20 09:17:18;;;;;;;2.55;0.38;;;4.40;93.00;;;;;;5022679;28;20103;-79
2022/01/20 09:19:45;;;;;;;6.03;0.40;;;4.40;93.00;;;;;;5019645;28;20048;-79
2022/01/20 09:22:14;;;;;;;2.10;0.55;;;4.30;93.00;;;;;;5035655;28;20140;-80
2022/01/20 09:24:42;;;;;;;4.78;0.60;;;4.30;92.90;;;;;;5019781;28;20076;-80
2022/01/20 09:27:09;;;;;;;5.35;0.70;;;4.30;92.90;;;;;;5019831;28;20110;-80
2022/01/20 09:29:37;;;;;;;1.77;0.32;;;4.20;92.80;;;;;;5036301;28;20041;-80
2022/01/20 09:32:09;;;;;;;2.92;0.45;;;4.20;92.90;;;;;;5019957;28;20045;-78
2022/01/20 09:34:37;;;;;;;1.77;0.30;;;4.20;92.90;;;;;;5020056;28;20128;-78
2022/01/20 09:37:05;;;;;;;5.82;0.70;;;4.30;92.90;;;;;;5003493;28;20500;-79
2022/01/20 09:39:38;;;;;;;3.97;1.42;;;4.20;92.70;;;;;;5020071;28;20041;-79
2022/01/20 09:42:15;;;;;;;5.00;0.75;;;4.30;93.00;;;;;;5021014;28;20041;-79
2022/01/20 09:44:47;;;;;;;4.10;0.50;;;4.20;92.60;;;;;;5019585;28;20045;-79
2022/01/20 09:47:17;;;;;;;3.05;0.32;;;4.20;92.70;;;;;;5019819;28;20400;-79
2022/01/20 09:50:24;;;;;;;3.83;0.50;;;4.10;92.60;;;;;;5018436;28;20037;-79
2022/01/20 09:53:10;;;;;;;5.38;0.40;;;4.00;92.60;;;;;;5021851;28;20049;-79
2022/01/20 09:55:49;;;;;;;6.13;0.52;;;3.90;92.70;;;;;;5035336;28;20485;-78
2022/01/20 09:58:16;;;;;;;2.40;0.52;;;3.80;92.70;;;;;;5019072;28;20049;-79
2022/01/20 10:00:46;;;;;;;5.82;0.40;;;3.90;92.90;;;;;;5018743;28;20124;-79
2022/01/20 10:03:16;;;;;;;3.40;0.40;;;3.80;92.80;;;;;;5035295;28;20396;-79
2022/01/20 10:05:48;;;;;;;;;;;3.90;92.90;;;;;;5035551;28;20091;-78
2022/01/20 10:08:22;;;;;;;2.45;0.30;;;3.90;93.00;;;;;;5035260;28;19974;-79
2022/01/20 10:11:10;;;;;;;3.30;0.32;;;4.00;93.00;;;;;;5031223;28;20045;-79
2022/01/20 10:13:59;;;;;;;5.15;0.55;;;4.00;92.80;;;;;;5024406;28;20412;-78
2022/01/20 10:16:44;;;;;;;6.93;0.50;;;4.10;92.60;;;;;;5024581;28;20052;-78
2022/01/20 10:19:23;;;;;;;3.93;0.50;;;4.00;92.50;;;;;;5019981;28;20049;-79
2022/01/20 10:21:50;;;;;;;6.70;1.00;;;4.10;92.60;;;;;;5035052;28;20452;-78
2022/01/20 10:24:33;;;;;;;6.78;1.00;;;4.10;92.50;;;;;;5020614;28;20049;-78
2022/01/20 10:27:10;;;;;;;5.63;0.70;;;4.30;92.50;;;;;;5019699;28;20049;-78
2022/01/20 10:29:39;;;;;;;4.57;1.00;;;4.50;92.40;;;;;;5035137;28;20159;-78
2022/01/20 10:32:20;;;;;;;3.80;0.50;;;4.60;92.30;;;;;;5020646;28;20056;-78
2022/01/20 10:34:47;;;;;;;5.95;0.60;;;4.70;92.20;;;;;;5034266;28;20053;-77
2022/01/20 10:37:23;;;;;;;4.65;0.75;;;4.80;92.10;;;;;;5018943;28;20512;-78
2022/01/20 10:40:14;;;;;;;5.63;0.40;;;4.90;92.00;;;;;;5006155;28;20048;-77
2022/01/20 10:42:49;;;;;;;3.90;0.40;;;4.90;91.80;;;;;;5034788;28;20575;-79
2022/01/20 10:45:28;;;;;;;4.22;0.77;;;4.90;92.00;;;;;;5018142;28;20041;-79
2022/01/20 10:47:58;;;;;;;3.13;0.80;;;5.00;92.00;;;;;;5034325;28;20064;-79
2022/01/20 10:50:30;;;;;;;5.45;0.52;;;5.00;91.70;;;;;;5034494;28;20075;-79
2022/01/20 10:53:19;;;;;;;3.97;0.55;;;5.00;91.80;;;;;;5037064;28;20053;-81
2022/01/20 10:55:48;;;;;;;4.63;0.57;;;5.00;91.80;;;;;;5034466;28;20044;-79
2022/01/20 10:58:22;;;;;;;4.28;0.60;;;5.00;91.70;;;;;;5018977;28;20041;-80
2022/01/20 11:00:55;;;;;;;6.38;0.60;;;5.00;91.70;;;;;;5034807;28;20049;-82
2022/01/20 11:03:27;;;;;;;5.83;0.70;;;5.00;91.50;;;;;;5018904;28;20493;-81
2022/01/20 11:05:56;;;;;;;4.75;0.75;;;5.00;91.50;;;;;;5002030;28;20045;-79
2022/01/20 11:08:38;;;;;;;5.75;0.50;;;4.90;91.60;;;;;;5019387;28;20116;-81
2022/01/20 11:11:06;;;;;;;4.30;0.80;;;4.90;91.70;;;;;;5035530;28;20041;-82
2022/01/20 11:13:56;;;;;;;7.65;0.93;;;5.00;91.50;;;;;;5015220;28;20049;-79
2022/01/20 11:16:24;;;;;;;7.55;0.90;;;5.10;91.20;;;;;;5034793;28;20045;-84
2022/01/20 11:18:51;;;;;;;7.18;0.90;;;5.20;91.00;;;;;;5001822;28;20045;-79
2022/01/20 11:21:24;;;;;;;2.40;0.40;;;5.30;90.80;;;;;;5018006;28;20091;-79
2022/01/20 11:23:53;;;;;;;4.18;0.80;;;5.40;90.90;;;;;;5033822;28;20049;-80
2022/01/20 11:27:00;;;;;;;3.20;0.60;;;5.40;90.90;;;;;;5011689;28;20068;-79
2022/01/20 11:29:50;;;;;;;6.30;0.73;;;5.50;90.80;;;;;;5006475;28;20567;-81
2022/01/20 11:32:39;;;;;;;8.23;0.93;;;5.50;90.50;;;;;;5021188;28;20045;-82
2022/01/20 11:35:19;;;;;;;6.72;1.10;;;5.50;90.20;;;;;;5019838;28;20099;-81
2022/01/20 11:37:57;;;;;;;6.70;0.60;;;5.50;90.30;;;;;;5018386;28;20485;-83
2022/01/20 11:40:24;;;;;;;3.63;0.50;;;5.60;90.00;;;;;;5018090;28;20052;-82
2022/01/20 11:43:03;;;;;;;4.72;0.50;;;5.60;90.10;;;;;;5019135;28;20044;-82
2022/01/20 11:45:33;;;;;;;6.57;1.45;;;5.70;90.20;;;;;;5019264;28;20124;-83
2022/01/20 11:48:22;;;;;;;4.25;0.82;;;5.80;89.90;;;;;;5038692;28;20041;-78
2022/01/20 11:51:08;;;;;;;3.72;0.40;;;5.80;90.00;;;;;;5038148;28;20122;-81
2022/01/20 11:53:42;;;;;;;4.00;0.40;;;5.80;90.10;;;;;;5021535;28;20676;-78
2022/01/20 11:56:10;;;;;;;6.47;0.40;;;5.80;89.60;;;;;;5022170;28;20421;-78
2022/01/20 11:58:38;;;;;;;6.13;0.60;;;5.60;89.60;;;;;;5021075;28;20135;-78
2022/01/20 12:01:07;;;;;;;5.20;0.50;;;5.50;89.90;;;;;;5021200;28;20049;-79
2022/01/20 12:03:36;;;;;;;3.30;0.40;;;5.30;90.00;;;;;;5037591;28;20186;-78
2022/01/20 12:06:14;;;;;;;3.80;0.40;;;4.90;90.20;;;;;;5022062;28;20117;-78
2022/01/20 12:09:00;;;;;;;3.72;0.30;;;4.50;90.70;;;;;;5026312;28;20120;-80
2022/01/20 12:11:54;;;;;;;2.50;0.50;;;4.30;91.00;;;;;;5021043;28;20121;-79
2022/01/20 12:14:36;;;;;;;2.35;0.30;;;4.00;91.20;;;;;;5019347;28;20137;-80
2022/01/20 12:17:11;;;;;;;3.45;1.17;;;3.80;91.40;;;;;;5037479;28;20406;-77
2022/01/20 12:19:38;;;;;;;1.63;0.17;;;3.70;91.60;;;;;;5020920;28;20061;-79
2022/01/20 12:22:08;;;;;;;2.15;0.20;;;3.60;91.70;;;;;;5021206;28;20057;-79
2022/01/20 12:24:36;;;;;;;3.30;0.10;;;3.60;91.90;;;;;;5020780;28;20799;-78
2022/01/20 12:27:20;;;;;;;0.90;0.20;;;3.60;91.90;;;;;;5004556;28;20053;-77
2022/01/20 12:29:48;;;;;;;1.58;0.20;;;3.70;91.90;;;;;;5020913;28;20045;-79
2022/01/20 12:32:18;;;;;;;1.67;0.20;;;3.80;92.00;;;;;;5021090;28;20045;-79
2022/01/20 12:35:02;;;;;;;1.70;0.20;;;3.80;92.00;;;;;;5036339;28;20045;-80
2022/01/20 12:37:38;;;;;;;3.83;0.60;;;3.80;92.00;;;;;;5003702;28;20052;-79
2022/01/20 12:40:21;;;;;;;1.42;0.20;;;3.90;92.00;;;;;;5035968;28;20566;-79
2022/01/20 12:42:51;;;;;;;3.58;0.30;;;4.00;92.00;;;;;;5020410;28;20124;-77
2022/01/20 12:48:16;;;;;;;2.15;0.25;;;4.40;91.80;;;;;;5054685;28;20037;-79
2022/01/20 12:51:02;;;;;;;3.88;0.40;;;4.70;91.60;;;;;;5020561;28;20037;-80
2022/01/20 12:53:41;;;;;;;6.72;0.80;;;5.00;91.40;;;;;;5020385;28;20041;-80
2022/01/20 12:56:11;;;;;;;1.70;0.30;;;5.10;91.10;;;;;;5019893;28;20053;-77
2022/01/20 12:58:53;;;;;;;2.67;0.30;;;5.20;91.00;;;;;;5036060;28;20106;-83
2022/01/20 13:01:38;;;;;;;3.08;0.52;;;5.20;91.00;;;;;;5052469;28;20037;-81
2022/01/20 13:04:08;;;;;;;1.55;0.30;;;5.30;90.90;;;;;;5048550;28;20558;-81
2022/01/20 13:06:39;;;;;;;3.17;0.40;;;5.30;90.90;;;;;;5048666;28;20412;-80
2022/01/20 13:09:09;;;;;;;2.63;0.40;;;5.40;90.90;;;;;;5025931;28;20094;-79
2022/01/20 13:11:45;;;;;;;2.53;0.20;;;5.40;90.90;;;;;;5030650;28;20082;-80
2022/01/20 13:14:12;;;;;;;2.70;0.20;;;5.40;90.80;;;;;;5032810;28;20485;-81
2022/01/20 13:16:53;;;;;;;3.38;0.32;;;5.40;90.80;;;;;;5031694;28;20446;-83
2022/01/20 13:19:32;;;;;;;5.53;0.45;;;5.40;90.80;;;;;;5030235;28;20071;-83
2022/01/20 13:22:00;;;;;;;5.93;0.98;;;5.30;90.60;;;;;;5052236;28;20047;-81
2022/01/20 13:24:30;;;;;;;6.78;0.77;;;5.20;90.40;;;;;;5012861;28;20044;-80
2022/01/20 13:26:58;;;;;;;10.15;0.95;;;5.20;90.40;;;;;;5026397;28;20049;-81
2022/01/20 13:29:37;;;;;;;4.95;0.70;;;5.20;90.30;;;;;;5036337;28;20448;-81
2022/01/20 13:32:05;;;;;;;8.02;0.77;;;5.20;90.30;;;;;;5019634;28;20064;-82
2022/01/20 13:34:32;;;;;;;6.32;1.13;;;5.20;90.10;;;;;;5032183;28;20132;-82
2022/01/20 13:36:59;;;;;;;3.78;0.60;;;5.30;90.10;;;;;;5003625;28;20049;-83
2022/01/20 13:39:30;;;;;;;2.22;0.50;;;5.40;90.00;;;;;;5003290;28;20056;-82
2022/01/20 13:42:11;;;;;;;7.25;0.88;;;5.40;90.10;;;;;;5019084;28;20083;-82
2022/01/20 13:47:24;;;;;;;3.08;0.32;;;5.30;89.70;;;;;;5035914;28;20520;-79
2022/01/20 13:49:54;;;;;;;6.35;0.63;;;5.30;89.90;;;;;;5003494;28;20065;-80
2022/01/20 13:52:22;;;;;;;3.33;0.40;;;5.20;89.90;;;;;;5019374;28;20045;-79
2022/01/20 13:54:58;;;;;;;3.80;0.47;;;5.20;90.00;;;;;;5019212;28;20124;-79
2022/01/20 13:57:39;;;;;;;4.72;0.73;;;5.10;90.00;;;;;;5035659;28;20049;-80
2022/01/20 14:00:10;;;;;;;3.70;0.95;;;5.10;90.00;;;;;;5019352;28;20052;-80
2022/01/20 14:02:38;;;;;;;4.28;0.50;;;5.10;89.90;;;;;;5020260;28;20049;-79
2022/01/20 14:05:06;;;;;;;4.03;0.50;;;5.10;90.00;;;;;;5019046;28;20488;-80
2022/01/20 14:07:33;;;;;;;5.63;0.40;;;5.10;89.60;;;;;;5035732;28;20037;-80
2022/01/20 14:10:00;;;;;;;3.78;0.68;;;5.10;89.30;;;;;;5018380;28;20543;-80
2022/01/20 14:12:27;;;;;;;6.10;0.60;;;5.10;89.60;;;;;;5018767;28;20473;-79
2022/01/20 14:14:56;;;;;;;3.22;0.40;;;5.20;89.30;;;;;;5018358;28;20555;-78
2022/01/20 14:17:23;;;;;;;1.42;0.35;;;5.20;89.50;;;;;;5018148;28;20098;-79
2022/01/20 14:19:56;;;;;;;5.20;0.50;;;5.20;89.10;;;;;;5001830;28;20041;-81
2022/01/20 14:22:24;;;;;;;5.38;0.55;;;5.20;88.90;;;;;;5003247;28;20071;-80
2022/01/20 14:24:51;;;;;;;4.05;0.30;;;5.20;89.00;;;;;;5015140;28;20096;-80
2022/01/20 14:27:19;;;;;;;8.10;0.60;;;5.20;89.10;;;;;;5015504;28;20095;-80
2022/01/20 14:29:47;;;;;;;2.60;0.30;;;5.20;89.10;;;;;;4990202;28;20144;-79
2022/01/20 14:32:15;;;;;;;2.53;0.50;;;5.20;89.20;;;;;;4999878;28;20103;-79
2022/01/20 14:34:45;;;;;;;3.05;0.73;;;5.20;89.30;;;;;;5015403;28;20379;-80
2022/01/20 14:37:13;;;;;;;4.30;0.50;;;5.10;89.40;;;;;;4999832;28;20051;-81